Time;durP1;ratioP1;P1;durP2;ratioP2;P2;SDS_P1;SDS_P2;PMS_P1;PMS_P2;Temp;Humidity;BMP_temperature;BMP_pressure;BME280_temperature;BME280_humidity;BME280_pressure;Samples;Min_cycle;Max_cycle;Signal;HPM_P1;HPM_P2
2021/08/20 00:00:05;;;;;;;2.72;2.53;;;19.90;69.10;;;;;;5134554;27;20184;-64
2021/08/20 00:02:30;;;;;;;4.20;2.58;;;19.90;69.00;;;;;;5134212;27;20184;-64
2021/08/20 00:04:56;;;;;;;3.17;2.72;;;19.90;69.00;;;;;;5134102;27;20236;-64
2021/08/20 00:07:21;;;;;;;2.78;2.55;;;19.90;69.00;;;;;;5134357;27;20626;-64
2021/08/20 00:09:49;;;;;;;2.75;2.55;;;19.90;69.00;;;;;;5134404;27;20174;-64
2021/08/20 00:12:15;;;;;;;3.55;2.90;;;19.90;69.00;;;;;;5134728;27;20180;-64
2021/08/20 00:14:40;;;;;;;2.78;2.58;;;19.90;69.00;;;;;;5134318;27;20175;-64
2021/08/20 00:17:06;;;;;;;2.88;2.67;;;19.80;69.00;;;;;;5133695;27;20183;-63
2021/08/20 00:19:32;;;;;;;3.35;3.00;;;19.90;69.00;;;;;;5134381;27;20576;-64
2021/08/20 00:21:57;;;;;;;2.83;2.63;;;19.80;69.00;;;;;;5134672;27;20722;-63
2021/08/20 00:24:23;;;;;;;3.15;2.95;;;19.90;69.00;;;;;;5133154;27;20719;-63
2021/08/20 00:26:48;;;;;;;2.42;2.33;;;19.80;68.90;;;;;;5134410;27;20173;-64
2021/08/20 00:29:14;;;;;;;3.08;2.88;;;19.80;68.90;;;;;;5134204;27;20177;-64
2021/08/20 00:31:39;;;;;;;3.05;2.65;;;19.80;68.90;;;;;;5133259;27;20220;-64
2021/08/20 00:34:05;;;;;;;2.92;2.72;;;19.80;68.90;;;;;;5134458;27;20184;-64
2021/08/20 00:36:30;;;;;;;2.90;2.70;;;19.80;68.90;;;;;;5134042;27;20175;-63
2021/08/20 00:38:56;;;;;;;2.83;2.63;;;19.80;68.90;;;;;;5133442;27;20208;-63
2021/08/20 00:41:21;;;;;;;3.20;2.90;;;19.80;68.90;;;;;;5133756;27;20173;-63
2021/08/20 00:43:47;;;;;;;2.88;2.67;;;19.80;68.90;;;;;;5133958;27;20584;-63
2021/08/20 00:46:12;;;;;;;3.13;2.70;;;19.80;68.90;;;;;;5133439;27;20245;-63
2021/08/20 00:48:39;;;;;;;2.90;2.70;;;19.80;68.90;;;;;;5133733;27;20212;-63
2021/08/20 00:51:15;;;;;;;2.60;2.40;;;19.80;68.90;;;;;;5134033;27;20255;-63
2021/08/20 00:53:40;;;;;;;3.03;2.83;;;19.80;68.90;;;;;;5114253;27;20208;-63
2021/08/20 00:56:06;;;;;;;2.78;2.58;;;19.80;68.90;;;;;;5115457;27;20214;-63
2021/08/20 00:58:32;;;;;;;3.35;3.10;;;19.80;68.90;;;;;;5133308;27;20208;-64
2021/08/20 01:00:57;;;;;;;3.17;2.97;;;19.80;69.70;;;;;;5133098;27;20237;-63
2021/08/20 01:03:25;;;;;;;3.13;2.92;;;19.80;68.90;;;;;;5133299;27;20255;-64
2021/08/20 01:05:51;;;;;;;3.42;2.67;;;19.80;68.90;;;;;;5133777;27;20173;-63
2021/08/20 01:08:17;;;;;;;3.28;3.08;;;19.80;68.90;;;;;;5133038;27;20172;-64
2021/08/20 01:10:43;;;;;;;2.65;2.45;;;19.80;68.90;;;;;;5133280;27;20176;-63
2021/08/20 01:13:08;;;;;;;2.83;2.63;;;19.80;68.90;;;;;;5132578;27;20179;-63
2021/08/20 01:15:34;;;;;;;3.22;2.55;;;19.80;68.90;;;;;;5133202;27;20345;-63
2021/08/20 01:17:59;;;;;;;2.90;2.70;;;19.80;68.90;;;;;;5133482;27;20541;-63
2021/08/20 01:20:25;;;;;;;2.50;2.30;;;19.80;68.80;;;;;;5132347;27;20184;-63
2021/08/20 01:22:50;;;;;;;3.05;2.85;;;19.80;68.90;;;;;;5133303;27;20164;-63
2021/08/20 01:25:16;;;;;;;2.95;2.75;;;19.80;68.90;;;;;;5133236;27;20180;-62
2021/08/20 01:27:41;;;;;;;2.90;2.70;;;19.80;68.90;;;;;;5132224;27;20172;-63
2021/08/20 01:30:07;;;;;;;2.55;2.42;;;19.70;68.80;;;;;;5133502;27;20183;-64
2021/08/20 01:32:33;;;;;;;2.80;2.60;;;19.70;68.80;;;;;;5132920;27;20180;-63
2021/08/20 01:34:58;;;;;;;3.22;2.97;;;19.80;68.90;;;;;;5132638;27;20176;-63
2021/08/20 01:37:24;;;;;;;2.60;2.40;;;19.70;68.70;;;;;;5132967;27;20218;-64
2021/08/20 01:39:49;;;;;;;3.05;2.67;;;19.70;68.70;;;;;;5133072;27;20184;-63
2021/08/20 01:42:15;;;;;;;2.65;2.45;;;19.70;68.70;;;;;;5132328;27;20192;-63
2021/08/20 01:44:41;;;;;;;3.05;2.75;;;19.70;68.70;;;;;;5132798;27;20531;-63
2021/08/20 01:47:10;;;;;;;2.60;2.40;;;19.70;68.70;;;;;;5133231;27;20200;-63
2021/08/20 01:49:36;;;;;;;3.00;2.80;;;19.80;68.90;;;;;;5132220;28;20236;-63
2021/08/20 01:52:02;;;;;;;2.50;2.30;;;19.70;68.70;;;;;;5133022;28;20176;-63
2021/08/20 01:54:28;;;;;;;2.70;2.50;;;19.70;68.70;;;;;;5132615;28;20176;-64
2021/08/20 01:56:53;;;;;;;2.88;2.58;;;19.70;68.70;;;;;;5132323;28;20649;-63
2021/08/20 01:59:19;;;;;;;3.13;2.90;;;19.70;68.70;;;;;;5132998;28;20208;-64
2021/08/20 02:01:44;;;;;;;2.80;2.60;;;19.70;68.70;;;;;;5132684;28;20200;-64
2021/08/20 02:04:10;;;;;;;2.88;2.67;;;19.70;68.70;;;;;;5132381;28;20170;-64
2021/08/20 02:06:35;;;;;;;2.70;2.50;;;19.70;68.70;;;;;;5132502;28;20172;-64
2021/08/20 02:09:01;;;;;;;2.53;2.38;;;19.70;68.70;;;;;;5132865;28;20634;-64
2021/08/20 02:11:26;;;;;;;2.92;2.65;;;19.70;68.70;;;;;;5131708;28;20506;-63
2021/08/20 02:13:52;;;;;;;2.50;2.30;;;19.70;68.70;;;;;;5132995;28;20168;-64
2021/08/20 02:16:17;;;;;;;2.40;2.30;;;19.70;68.70;;;;;;5133047;28;20176;-63
2021/08/20 02:18:43;;;;;;;3.00;2.80;;;19.70;68.70;;;;;;5131810;28;20204;-63
2021/08/20 02:21:08;;;;;;;2.88;2.60;;;19.70;68.70;;;;;;5134952;27;20177;-63
2021/08/20 02:23:36;;;;;;;2.95;2.75;;;19.70;68.70;;;;;;5135502;27;20223;-63
2021/08/20 02:26:02;;;;;;;2.72;2.53;;;19.70;68.70;;;;;;5136561;27;20486;-63
2021/08/20 02:28:27;;;;;;;2.90;2.70;;;19.70;68.70;;;;;;5136442;27;20183;-64
2021/08/20 02:30:53;;;;;;;2.80;2.45;;;19.70;68.70;;;;;;5135768;27;20183;-63
2021/08/20 02:33:18;;;;;;;2.88;2.67;;;19.70;68.70;;;;;;5136344;27;20256;-64
2021/08/20 02:35:44;;;;;;;2.80;2.58;;;19.70;68.70;;;;;;5136191;27;20218;-64
2021/08/20 02:38:12;;;;;;;3.17;2.72;;;19.70;68.70;;;;;;5135444;27;20560;-63
2021/08/20 02:40:38;;;;;;;4.18;2.63;;;19.60;68.60;;;;;;5135916;27;20660;-64
2021/08/20 02:43:03;;;;;;;2.58;2.38;;;19.60;68.60;;;;;;5136509;27;20236;-63
2021/08/20 02:45:29;;;;;;;3.47;2.80;;;19.70;68.70;;;;;;5135096;27;20160;-63
2021/08/20 02:47:54;;;;;;;2.97;2.78;;;19.70;68.70;;;;;;5136302;27;20289;-63
2021/08/20 02:50:20;;;;;;;2.80;2.60;;;19.60;68.60;;;;;;5135989;27;20211;-64
2021/08/20 02:52:45;;;;;;;2.75;2.55;;;19.60;68.70;;;;;;5135294;27;20204;-63
2021/08/20 02:55:11;;;;;;;3.00;2.72;;;19.60;69.50;;;;;;5135914;27;20168;-64
2021/08/20 02:57:37;;;;;;;2.95;2.72;;;19.60;68.70;;;;;;5135745;27;20420;-64
2021/08/20 03:00:03;;;;;;;2.53;2.33;;;19.60;68.60;;;;;;5135084;27;20623;-63
2021/08/20 03:02:29;;;;;;;2.70;2.50;;;19.60;68.60;;;;;;5135304;27;20176;-64
2021/08/20 03:04:54;;;;;;;3.15;2.85;;;19.60;68.60;;;;;;5135822;27;20179;-64
2021/08/20 03:07:20;;;;;;;2.50;2.40;;;19.70;68.70;;;;;;5134822;27;20245;-64
2021/08/20 03:09:45;;;;;;;2.35;2.25;;;19.60;68.60;;;;;;5135654;27;20168;-64
2021/08/20 03:12:11;;;;;;;2.92;2.45;;;19.60;68.60;;;;;;5135630;27;20175;-63
2021/08/20 03:14:36;;;;;;;2.97;2.72;;;19.60;68.60;;;;;;5134719;27;20169;-63
2021/08/20 03:17:02;;;;;;;4.05;2.38;;;19.60;68.60;;;;;;5135793;27;20164;-63
2021/08/20 03:19:27;;;;;;;2.75;2.55;;;19.60;68.60;;;;;;5135196;27;20211;-63
2021/08/20 03:21:53;;;;;;;3.03;2.70;;;19.60;68.60;;;;;;5134776;27;20177;-63
2021/08/20 03:24:18;;;;;;;2.60;2.40;;;19.70;68.70;;;;;;5135223;27;20723;-63
2021/08/20 03:26:44;;;;;;;2.60;2.40;;;19.70;68.70;;;;;;5134737;27;20615;-63
2021/08/20 03:29:09;;;;;;;3.00;2.58;;;19.60;68.60;;;;;;5135429;27;20169;-64
2021/08/20 03:31:35;;;;;;;2.47;2.28;;;19.70;68.70;;;;;;5134351;27;20199;-64
2021/08/20 03:34:00;;;;;;;2.50;2.40;;;19.60;68.60;;;;;;5134049;27;20649;-64
2021/08/20 03:36:26;;;;;;;2.45;2.25;;;19.60;68.60;;;;;;5134933;27;20172;-64
2021/08/20 03:38:52;;;;;;;2.60;2.40;;;19.60;68.60;;;;;;5135199;27;20352;-64
2021/08/20 03:41:18;;;;;;;2.70;2.60;;;19.60;68.60;;;;;;5134701;27;20176;-63
2021/08/20 03:43:44;;;;;;;2.92;2.72;;;19.60;68.60;;;;;;5134664;27;20602;-63
2021/08/20 03:46:09;;;;;;;3.80;2.90;;;19.60;68.60;;;;;;5135057;27;20264;-63
2021/08/20 03:48:36;;;;;;;2.85;2.65;;;19.60;68.60;;;;;;5134472;27;20172;-63
2021/08/20 03:51:02;;;;;;;2.67;2.47;;;19.60;68.60;;;;;;5135015;27;20196;-63
2021/08/20 03:53:27;;;;;;;2.80;2.60;;;19.60;68.60;;;;;;5134468;27;20540;-63
2021/08/20 03:55:53;;;;;;;2.35;2.25;;;19.60;68.60;;;;;;5133889;27;20264;-64
2021/08/20 03:58:18;;;;;;;2.60;2.40;;;19.60;68.60;;;;;;5134784;27;20243;-64
2021/08/20 04:00:51;;;;;;;2.90;2.58;;;19.60;68.60;;;;;;5134480;27;20175;-63
2021/08/20 04:03:17;;;;;;;2.40;2.30;;;19.60;68.60;;;;;;5133920;27;20626;-63
2021/08/20 04:05:42;;;;;;;2.58;2.40;;;19.60;68.60;;;;;;5134136;27;20263;-64
2021/08/20 04:08:08;;;;;;;2.42;2.22;;;19.60;68.60;;;;;;5134615;27;20178;-63
2021/08/20 04:10:33;;;;;;;2.30;2.20;;;19.60;68.50;;;;;;5133707;27;20523;-64
2021/08/20 04:12:59;;;;;;;2.10;2.00;;;19.60;68.60;;;;;;5134680;27;20180;-64
2021/08/20 04:15:24;;;;;;;2.85;2.65;;;19.60;68.60;;;;;;5134085;27;20205;-64
2021/08/20 04:17:50;;;;;;;2.78;2.58;;;19.60;68.50;;;;;;5133606;27;20204;-63
2021/08/20 04:20:15;;;;;;;2.72;2.55;;;19.60;68.50;;;;;;5134260;27;20524;-63
2021/08/20 04:22:41;;;;;;;2.55;2.35;;;19.60;68.60;;;;;;5133711;27;20261;-62
2021/08/20 04:25:07;;;;;;;2.65;2.30;;;19.60;68.60;;;;;;5133608;27;20205;-63
2021/08/20 04:27:32;;;;;;;2.92;2.72;;;19.60;68.50;;;;;;5134142;27;20168;-64
2021/08/20 04:29:59;;;;;;;2.80;2.60;;;19.60;68.50;;;;;;5134388;27;20203;-64
2021/08/20 04:32:25;;;;;;;2.85;2.65;;;19.60;68.50;;;;;;5133396;27;20702;-65
2021/08/20 04:34:50;;;;;;;2.58;2.38;;;19.60;68.60;;;;;;5134008;27;20312;-63
2021/08/20 04:37:18;;;;;;;2.70;2.50;;;19.60;68.50;;;;;;5133088;27;20249;-63
2021/08/20 04:39:43;;;;;;;2.67;2.25;;;19.60;68.50;;;;;;5133849;27;20200;-63
2021/08/20 04:42:09;;;;;;;2.95;2.75;;;19.60;68.50;;;;;;5134090;27;20165;-63
2021/08/20 04:44:34;;;;;;;2.83;2.63;;;19.60;68.50;;;;;;5132598;27;20180;-64
2021/08/20 04:47:00;;;;;;;2.67;2.38;;;19.60;68.50;;;;;;5133944;27;20259;-63
2021/08/20 04:49:25;;;;;;;2.30;2.13;;;19.60;68.50;;;;;;5133452;27;20168;-63
2021/08/20 04:51:51;;;;;;;2.40;2.10;;;19.60;68.50;;;;;;5132835;27;20556;-63
2021/08/20 04:54:17;;;;;;;2.90;2.50;;;19.60;68.50;;;;;;5134011;27;20635;-64
2021/08/20 04:56:42;;;;;;;2.60;2.40;;;19.60;68.50;;;;;;5133457;27;20516;-63
2021/08/20 04:59:08;;;;;;;3.28;2.70;;;19.60;68.50;;;;;;5132872;27;20208;-63
2021/08/20 05:01:33;;;;;;;2.75;2.55;;;19.60;68.50;;;;;;5133131;27;20180;-63
2021/08/20 05:03:59;;;;;;;2.63;2.42;;;19.60;68.50;;;;;;5133441;27;20599;-63
2021/08/20 05:06:24;;;;;;;2.55;2.35;;;19.50;68.50;;;;;;5132437;27;20271;-64
2021/08/20 05:08:50;;;;;;;2.80;2.60;;;19.60;68.50;;;;;;5133708;27;20172;-64
2021/08/20 05:11:15;;;;;;;2.72;2.47;;;19.50;68.40;;;;;;5115115;27;20266;-64
2021/08/20 05:13:41;;;;;;;2.55;2.35;;;19.60;68.50;;;;;;5132477;27;20172;-64
2021/08/20 05:16:07;;;;;;;2.47;2.28;;;19.60;68.40;;;;;;5133281;27;20252;-63
2021/08/20 05:18:32;;;;;;;2.63;2.40;;;19.60;68.40;;;;;;5132809;27;20696;-63
2021/08/20 05:20:58;;;;;;;2.38;2.28;;;19.60;68.50;;;;;;5132497;27;20653;-62
2021/08/20 05:23:26;;;;;;;2.63;2.42;;;19.60;68.40;;;;;;5132711;27;20224;-62
2021/08/20 05:25:52;;;;;;;2.85;2.65;;;19.60;68.40;;;;;;5133228;27;20175;-62
2021/08/20 05:28:17;;;;;;;2.55;2.40;;;19.60;68.40;;;;;;5132357;27;20180;-64
2021/08/20 05:30:43;;;;;;;2.65;2.45;;;19.60;68.50;;;;;;5132712;27;20655;-64
2021/08/20 05:33:08;;;;;;;2.85;2.65;;;19.60;68.40;;;;;;5133037;27;20212;-63
2021/08/20 05:35:34;;;;;;;2.40;2.20;;;19.50;68.40;;;;;;5131791;27;20172;-64
2021/08/20 05:38:01;;;;;;;2.80;2.60;;;19.50;68.30;;;;;;5133044;27;20250;-63
2021/08/20 05:40:27;;;;;;;3.13;2.92;;;19.60;68.40;;;;;;5132062;27;20196;-63
2021/08/20 05:42:52;;;;;;;2.95;2.65;;;19.60;68.40;;;;;;5132979;27;20260;-62
2021/08/20 05:45:18;;;;;;;2.60;2.40;;;19.50;68.30;;;;;;5132903;27;20168;-63
2021/08/20 05:47:43;;;;;;;2.88;2.40;;;19.50;68.40;;;;;;5131762;27;20226;-63
2021/08/20 05:50:09;;;;;;;2.95;2.75;;;19.50;68.30;;;;;;5128045;27;20502;-62
2021/08/20 05:52:38;;;;;;;2.75;2.55;;;19.60;68.40;;;;;;5123369;28;20275;-63
2021/08/20 05:55:07;;;;;;;2.70;2.50;;;19.50;68.30;;;;;;5131339;27;20172;-63
2021/08/20 05:57:33;;;;;;;2.83;2.63;;;19.50;68.30;;;;;;5132474;28;20192;-64
2021/08/20 05:59:58;;;;;;;2.92;2.72;;;19.60;68.40;;;;;;5132670;28;20261;-63
2021/08/20 06:02:24;;;;;;;2.80;2.60;;;19.60;68.40;;;;;;5131405;28;20172;-64
2021/08/20 06:04:49;;;;;;;3.13;2.92;;;19.60;68.40;;;;;;5132453;28;20659;-61
2021/08/20 06:07:15;;;;;;;3.05;2.75;;;19.60;68.30;;;;;;5132875;28;20208;-61
2021/08/20 06:09:41;;;;;;;3.28;3.00;;;19.60;68.30;;;;;;5131555;28;20222;-63
2021/08/20 06:12:06;;;;;;;4.07;3.10;;;19.70;68.40;;;;;;5132760;28;20198;-61
2021/08/20 06:14:33;;;;;;;10.10;3.95;;;19.60;68.30;;;;;;5132181;28;20268;-61
2021/08/20 06:16:58;;;;;;;5.60;3.38;;;19.70;68.70;;;;;;5131867;28;20172;-60
2021/08/20 06:19:25;;;;;;;4.07;3.78;;;19.70;68.70;;;;;;5131988;28;20212;-60
2021/08/20 06:21:50;;;;;;;6.15;3.70;;;19.70;68.80;;;;;;5132449;28;20275;-60
2021/08/20 06:24:16;;;;;;;4.93;3.90;;;19.80;69.00;;;;;;5131771;28;20251;-60
2021/08/20 06:26:41;;;;;;;6.28;4.25;;;19.70;68.80;;;;;;5132566;28;20169;-61
2021/08/20 06:29:07;;;;;;;6.00;4.07;;;19.80;69.00;;;;;;5132358;28;20625;-60
2021/08/20 06:31:32;;;;;;;5.05;4.25;;;19.80;68.90;;;;;;5131121;28;20172;-60
2021/08/20 06:33:58;;;;;;;5.20;4.22;;;19.80;68.90;;;;;;5132097;28;20507;-61
2021/08/20 06:36:24;;;;;;;5.03;4.53;;;19.80;68.90;;;;;;5132032;28;20172;-60
2021/08/20 06:38:50;;;;;;;5.85;4.35;;;19.80;69.10;;;;;;5131552;28;20370;-62
2021/08/20 06:41:15;;;;;;;6.82;4.30;;;19.80;69.10;;;;;;5132143;28;20643;-61
2021/08/20 06:43:41;;;;;;;10.10;4.30;;;19.80;69.10;;;;;;5131213;28;20168;-60
2021/08/20 06:46:06;;;;;;;7.32;4.25;;;19.70;68.90;;;;;;5132280;28;20172;-61
2021/08/20 06:48:32;;;;;;;4.90;3.85;;;19.70;68.90;;;;;;5132036;28;20173;-61
2021/08/20 06:50:57;;;;;;;4.93;4.40;;;19.70;69.00;;;;;;5131620;28;20171;-61
2021/08/20 06:53:23;;;;;;;7.53;4.00;;;19.70;69.80;;;;;;5131860;28;20208;-61
2021/08/20 06:55:48;;;;;;;5.93;4.25;;;19.70;68.90;;;;;;5131997;28;20229;-61
2021/08/20 06:58:14;;;;;;;5.30;4.25;;;19.70;68.90;;;;;;5131258;28;20545;-61
2021/08/20 07:00:39;;;;;;;4.45;4.03;;;19.70;69.00;;;;;;5131530;28;20168;-61
2021/08/20 07:03:05;;;;;;;5.47;4.13;;;19.70;68.90;;;;;;5131826;28;20545;-60
2021/08/20 07:05:31;;;;;;;8.10;4.20;;;19.80;69.00;;;;;;5131125;28;20172;-61
2021/08/20 07:07:56;;;;;;;4.72;4.00;;;19.80;69.00;;;;;;5135167;27;20256;-61
2021/08/20 07:10:22;;;;;;;5.60;4.45;;;19.80;68.90;;;;;;5135477;27;20600;-61
2021/08/20 07:12:47;;;;;;;8.18;4.13;;;19.80;68.90;;;;;;5134891;27;20184;-61
2021/08/20 07:15:13;;;;;;;5.38;3.85;;;19.80;68.90;;;;;;5135716;27;20244;-61
2021/08/20 07:17:39;;;;;;;4.68;4.20;;;19.80;68.80;;;;;;5135114;27;21125;-60
2021/08/20 07:20:05;;;;;;;4.78;4.22;;;19.80;69.70;;;;;;5134758;27;20557;-61
2021/08/20 07:22:31;;;;;;;5.25;4.38;;;19.80;68.90;;;;;;5134983;27;20524;-60
2021/08/20 07:24:56;;;;;;;4.72;4.00;;;19.80;68.90;;;;;;5135109;27;20224;-60
2021/08/20 07:27:22;;;;;;;6.90;4.05;;;19.80;68.90;;;;;;5134088;27;20199;-61
2021/08/20 07:29:47;;;;;;;7.18;4.30;;;19.80;68.90;;;;;;5135522;27;20180;-60
2021/08/20 07:32:13;;;;;;;7.00;4.25;;;19.80;68.90;;;;;;5134788;27;20277;-61
2021/08/20 07:34:38;;;;;;;6.57;4.28;;;19.80;69.00;;;;;;5134050;27;21005;-61
2021/08/20 07:37:05;;;;;;;6.63;4.40;;;19.80;69.00;;;;;;5135282;27;20184;-61
2021/08/20 07:39:31;;;;;;;4.35;3.85;;;19.80;69.00;;;;;;5134571;27;20406;-61
2021/08/20 07:41:57;;;;;;;7.13;4.68;;;19.80;69.10;;;;;;5134331;27;20354;-61
2021/08/20 07:44:22;;;;;;;6.03;4.15;;;19.80;69.00;;;;;;5134577;27;20218;-61
2021/08/20 07:46:48;;;;;;;5.32;4.22;;;19.80;68.90;;;;;;5134608;27;20164;-61
2021/08/20 07:49:14;;;;;;;5.18;4.20;;;19.80;68.90;;;;;;5134165;27;20540;-60
2021/08/20 07:51:39;;;;;;;4.35;3.95;;;19.80;68.90;;;;;;5134710;27;20233;-61
2021/08/20 07:54:05;;;;;;;5.50;4.82;;;19.90;68.90;;;;;;5133908;27;20180;-61
2021/08/20 07:56:30;;;;;;;4.45;3.97;;;19.80;68.90;;;;;;5134357;27;20275;-61
2021/08/20 07:58:56;;;;;;;6.20;4.57;;;19.80;68.90;;;;;;5134633;27;20299;-61
2021/08/20 08:01:22;;;;;;;4.63;4.22;;;19.80;69.00;;;;;;5133431;27;20187;-61
2021/08/20 08:03:48;;;;;;;3.95;3.65;;;19.80;68.90;;;;;;5134743;27;20176;-61
2021/08/20 08:06:13;;;;;;;6.25;4.10;;;19.90;69.00;;;;;;5135021;27;20175;-61
2021/08/20 08:08:41;;;;;;;5.28;4.32;;;19.80;68.90;;;;;;5133492;27;20180;-61
2021/08/20 08:11:08;;;;;;;4.78;4.28;;;19.90;69.00;;;;;;5134383;27;20260;-61
2021/08/20 08:13:33;;;;;;;5.25;3.90;;;19.90;68.90;;;;;;5134097;27;20176;-60
2021/08/20 08:15:59;;;;;;;4.72;4.32;;;19.90;68.70;;;;;;5133561;27;20175;-60
2021/08/20 08:18:24;;;;;;;4.05;3.65;;;19.90;68.80;;;;;;5133021;27;20219;-60
2021/08/20 08:20:50;;;;;;;6.38;5.10;;;19.90;68.70;;;;;;5134250;27;20661;-60
2021/08/20 08:23:16;;;;;;;4.45;4.05;;;19.90;68.80;;;;;;5133330;27;20334;-60
2021/08/20 08:25:41;;;;;;;4.90;4.50;;;19.90;68.80;;;;;;5133975;27;20508;-60
2021/08/20 08:28:07;;;;;;;4.18;3.78;;;19.90;68.90;;;;;;5134211;27;20172;-60
2021/08/20 08:30:37;;;;;;;4.47;4.18;;;19.90;68.80;;;;;;5133007;27;20173;-61
2021/08/20 08:33:02;;;;;;;5.28;4.28;;;20.00;68.90;;;;;;5134231;27;20183;-61
2021/08/20 08:35:28;;;;;;;4.70;3.60;;;20.00;68.80;;;;;;5133877;27;20168;-61
2021/08/20 08:38:10;;;;;;;4.75;4.28;;;20.00;68.70;;;;;;5133106;27;20650;-61
2021/08/20 08:40:37;;;;;;;4.40;4.00;;;20.10;68.70;;;;;;5133352;27;20204;-61
2021/08/20 08:43:04;;;;;;;4.57;4.18;;;20.10;68.60;;;;;;5133679;27;20172;-60
2021/08/20 08:45:29;;;;;;;4.40;3.97;;;20.10;68.60;;;;;;5133304;27;20259;-61
2021/08/20 08:47:55;;;;;;;4.80;4.40;;;20.10;68.50;;;;;;5133926;27;20648;-60
2021/08/20 08:50:21;;;;;;;4.53;4.10;;;20.10;68.50;;;;;;5132955;27;20176;-62
2021/08/20 08:52:47;;;;;;;4.55;4.15;;;20.10;68.50;;;;;;5133798;27;20239;-61
2021/08/20 08:55:12;;;;;;;5.43;4.93;;;20.10;68.40;;;;;;5133785;27;20199;-62
2021/08/20 08:57:38;;;;;;;4.25;3.85;;;20.20;68.50;;;;;;5132586;27;20199;-61
2021/08/20 09:00:04;;;;;;;4.70;4.30;;;20.20;68.20;;;;;;5133325;27;20321;-62
2021/08/20 09:02:30;;;;;;;4.53;4.13;;;20.30;68.20;;;;;;5133294;27;20172;-61
2021/08/20 09:04:57;;;;;;;4.20;3.80;;;20.30;68.20;;;;;;5132965;27;20276;-61
2021/08/20 09:07:23;;;;;;;4.53;4.13;;;20.30;68.30;;;;;;5133092;27;20251;-61
2021/08/20 09:10:08;;;;;;;4.20;3.80;;;20.20;68.40;;;;;;5114836;27;20644;-61
2021/08/20 09:12:34;;;;;;;4.30;3.90;;;20.30;68.50;;;;;;5132656;27;20272;-61
2021/08/20 09:14:59;;;;;;;3.97;3.67;;;20.20;68.40;;;;;;5098081;27;20483;-61
2021/08/20 09:17:35;;;;;;;6.97;4.47;;;20.30;68.50;;;;;;5114398;27;20252;-61
2021/08/20 09:20:15;;;;;;;4.50;4.10;;;20.30;68.50;;;;;;5132400;27;20195;-61
2021/08/20 09:22:41;;;;;;;3.97;3.67;;;20.30;68.30;;;;;;5132917;27;20183;-61
2021/08/20 09:25:07;;;;;;;4.07;3.65;;;20.50;68.10;;;;;;5133306;27;20184;-61
2021/08/20 09:27:33;;;;;;;4.25;3.85;;;20.40;68.00;;;;;;5131886;27;20200;-61
2021/08/20 09:30:09;;;;;;;4.55;4.15;;;20.40;68.10;;;;;;5132119;27;20253;-61
2021/08/20 09:32:35;;;;;;;4.60;4.20;;;20.30;68.20;;;;;;5131826;27;20175;-61
2021/08/20 09:35:01;;;;;;;4.20;3.80;;;20.40;68.40;;;;;;5132846;27;20267;-61
2021/08/20 09:37:27;;;;;;;4.68;4.32;;;20.40;68.40;;;;;;5132483;27;20255;-61
2021/08/20 09:39:59;;;;;;;4.20;3.33;;;20.40;68.40;;;;;;5132160;27;20212;-61
2021/08/20 09:42:24;;;;;;;4.63;4.22;;;20.40;68.40;;;;;;5132266;27;20176;-60
2021/08/20 09:45:19;;;;;;;4.38;3.97;;;20.40;68.20;;;;;;5132736;27;20263;-61
2021/08/20 09:47:49;;;;;;;4.82;4.10;;;20.50;68.20;;;;;;5131630;27;20173;-61
2021/08/20 09:50:14;;;;;;;4.35;3.92;;;20.40;68.20;;;;;;5132978;27;20168;-61
2021/08/20 09:52:40;;;;;;;4.47;4.10;;;20.40;68.30;;;;;;5132447;27;20191;-61
2021/08/20 09:55:06;;;;;;;4.13;3.83;;;20.40;68.40;;;;;;5132212;28;20176;-61
2021/08/20 09:57:32;;;;;;;4.10;3.67;;;20.50;68.30;;;;;;5132334;28;20630;-61
2021/08/20 09:59:58;;;;;;;4.40;4.00;;;20.50;68.30;;;;;;5132384;28;20252;-62
2021/08/20 10:02:25;;;;;;;4.15;3.60;;;20.60;68.10;;;;;;5131729;28;20567;-61
2021/08/20 10:04:55;;;;;;;4.50;4.10;;;20.60;68.10;;;;;;5132533;28;20698;-61
2021/08/20 10:07:21;;;;;;;4.07;3.78;;;20.60;68.20;;;;;;5132318;28;20177;-61
2021/08/20 10:09:47;;;;;;;4.45;4.05;;;20.50;68.20;;;;;;5131938;28;20227;-61
2021/08/20 10:12:15;;;;;;;4.38;4.00;;;20.50;68.30;;;;;;5114181;28;21039;-60
2021/08/20 10:14:41;;;;;;;4.00;3.70;;;20.50;69.30;;;;;;5112971;28;20177;-61
2021/08/20 10:17:06;;;;;;;4.13;3.83;;;20.50;68.50;;;;;;5132302;28;20635;-62
2021/08/20 10:19:32;;;;;;;4.45;4.15;;;20.50;68.60;;;;;;5096596;28;20216;-61
2021/08/20 10:21:57;;;;;;;3.38;3.15;;;20.50;68.80;;;;;;5096598;28;20168;-61
2021/08/20 10:24:23;;;;;;;4.07;3.63;;;20.50;68.70;;;;;;5113563;28;20252;-61
2021/08/20 10:26:54;;;;;;;3.95;3.65;;;20.50;68.80;;;;;;5132365;28;20240;-60
2021/08/20 10:29:25;;;;;;;3.65;3.45;;;20.60;68.60;;;;;;5112987;28;20626;-60
2021/08/20 10:31:50;;;;;;;4.47;4.18;;;20.60;68.20;;;;;;5132480;28;20180;-61
2021/08/20 10:34:31;;;;;;;4.57;4.18;;;20.80;68.10;;;;;;5097075;28;20179;-61
2021/08/20 10:37:16;;;;;;;3.92;3.55;;;20.80;67.80;;;;;;5131498;28;20221;-61
2021/08/20 10:39:45;;;;;;;3.72;3.42;;;20.80;68.00;;;;;;5131799;28;20208;-60
2021/08/20 10:42:18;;;;;;;3.58;3.28;;;20.80;68.10;;;;;;5128953;27;20176;-60
2021/08/20 10:44:51;;;;;;;4.63;4.20;;;20.80;68.00;;;;;;5104583;27;20204;-59
2021/08/20 10:47:26;;;;;;;4.38;4.07;;;20.90;68.10;;;;;;5125105;27;20576;-61
2021/08/20 10:50:07;;;;;;;4.05;3.65;;;20.90;68.00;;;;;;5123972;27;20184;-62
2021/08/20 10:52:34;;;;;;;4.68;3.78;;;21.00;68.00;;;;;;5123652;27;20185;-61
2021/08/20 10:55:00;;;;;;;4.18;3.80;;;21.00;67.80;;;;;;5126533;27;20177;-61
2021/08/20 10:57:34;;;;;;;5.07;3.72;;;21.10;67.70;;;;;;5123942;27;20544;-62
2021/08/20 11:00:00;;;;;;;3.45;3.15;;;21.10;67.80;;;;;;5126089;27;20180;-61
2021/08/20 11:02:26;;;;;;;4.25;3.78;;;21.00;67.90;;;;;;5123454;27;20181;-62
2021/08/20 11:05:01;;;;;;;4.72;3.78;;;21.00;68.00;;;;;;5132010;27;20183;-62
2021/08/20 11:07:38;;;;;;;4.88;3.40;;;21.00;68.00;;;;;;5135364;27;20577;-62
2021/08/20 11:10:10;;;;;;;4.53;4.13;;;21.00;68.10;;;;;;5135763;27;20175;-62
2021/08/20 11:12:42;;;;;;;3.70;3.40;;;21.00;68.20;;;;;;5134720;27;20418;-65
2021/08/20 11:15:17;;;;;;;4.05;3.75;;;20.90;68.40;;;;;;5135754;27;20254;-61
2021/08/20 11:18:02;;;;;;;3.63;3.33;;;20.90;68.60;;;;;;5135482;27;20356;-62
2021/08/20 11:20:29;;;;;;;3.75;3.45;;;20.90;68.50;;;;;;5135371;27;20260;-62
2021/08/20 11:25:38;;;;;;;3.78;3.47;;;21.00;68.50;;;;;;5134685;27;20194;-62
2021/08/20 11:28:25;;;;;;;3.78;3.47;;;20.90;68.40;;;;;;5135591;27;20172;-66
2021/08/20 11:30:58;;;;;;;4.53;3.63;;;21.00;68.50;;;;;;5135529;27;20171;-66
2021/08/20 11:33:28;;;;;;;4.90;3.58;;;21.00;68.20;;;;;;5134317;27;20181;-68
2021/08/20 11:35:55;;;;;;;4.22;3.38;;;21.10;68.20;;;;;;5135183;27;20168;-66
2021/08/20 11:38:27;;;;;;;3.75;3.40;;;21.10;68.20;;;;;;5134909;27;20228;-67
2021/08/20 11:40:53;;;;;;;3.72;3.40;;;21.20;68.20;;;;;;5134682;27;20170;-66
2021/08/20 11:43:22;;;;;;;4.03;3.30;;;21.20;68.00;;;;;;5135302;27;20533;-67
2021/08/20 11:45:53;;;;;;;4.00;3.60;;;21.20;67.90;;;;;;5135192;27;20199;-66
2021/08/20 11:48:19;;;;;;;3.50;3.20;;;21.30;67.80;;;;;;5134226;27;20661;-67
2021/08/20 11:50:45;;;;;;;3.58;3.25;;;21.30;67.80;;;;;;5134998;27;20180;-65
2021/08/20 11:53:10;;;;;;;4.25;3.85;;;21.30;67.70;;;;;;5133346;27;20177;-60
2021/08/20 11:55:36;;;;;;;4.05;3.75;;;21.40;67.70;;;;;;5134520;27;20259;-60
2021/08/20 11:58:01;;;;;;;3.50;3.03;;;21.40;67.60;;;;;;5134599;27;20694;-61
2021/08/20 12:00:37;;;;;;;3.80;3.42;;;21.40;67.60;;;;;;5115284;27;20279;-62
2021/08/20 12:03:07;;;;;;;4.03;3.42;;;21.40;67.50;;;;;;5134577;27;20259;-62
2021/08/20 12:05:32;;;;;;;4.03;3.47;;;21.40;67.50;;;;;;5134500;27;20260;-61
2021/08/20 12:07:58;;;;;;;3.63;3.33;;;21.40;67.50;;;;;;5133999;27;20251;-60
2021/08/20 12:10:23;;;;;;;2.90;2.70;;;21.40;67.40;;;;;;5134186;27;20180;-62
2021/08/20 12:12:49;;;;;;;3.30;3.00;;;21.50;67.30;;;;;;5134640;27;20637;-61
2021/08/20 12:15:15;;;;;;;5.55;3.35;;;21.60;67.10;;;;;;5115316;27;20194;-61
2021/08/20 12:17:41;;;;;;;3.92;3.45;;;21.60;66.80;;;;;;5115812;27;20218;-61
2021/08/20 12:20:19;;;;;;;3.13;2.92;;;21.60;66.80;;;;;;5134468;27;20177;-61
2021/08/20 12:22:51;;;;;;;4.35;3.35;;;21.60;66.70;;;;;;5133473;27;20176;-61
2021/08/20 12:25:20;;;;;;;3.60;3.30;;;21.70;66.60;;;;;;5134192;27;20497;-61
2021/08/20 12:27:46;;;;;;;3.53;3.20;;;21.70;66.50;;;;;;5134186;27;20177;-60
2021/08/20 12:30:16;;;;;;;4.05;3.10;;;21.80;67.40;;;;;;5133394;27;20175;-61
2021/08/20 12:32:55;;;;;;;3.45;3.15;;;21.80;66.30;;;;;;5134019;27;20183;-60
2021/08/20 12:35:21;;;;;;;3.25;3.00;;;21.80;66.30;;;;;;5133229;27;20200;-60
2021/08/20 12:38:08;;;;;;;4.72;3.00;;;21.80;66.20;;;;;;5133981;27;20208;-60
2021/08/20 12:40:56;;;;;;;3.92;3.35;;;21.90;66.20;;;;;;5133422;27;20244;-59
2021/08/20 12:43:23;;;;;;;4.72;3.22;;;21.90;66.10;;;;;;5132775;27;20501;-59
2021/08/20 12:46:09;;;;;;;5.50;3.22;;;21.80;66.50;;;;;;5133772;27;20194;-58
2021/08/20 12:48:36;;;;;;;3.50;3.20;;;21.90;66.30;;;;;;5133364;27;20180;-60